createdAt,value
2023-05-13T00:01:58.999Z,4.90
2023-05-13T00:04:25.857Z,5.25
2023-05-13T00:06:52.642Z,5.20
2023-05-13T00:09:19.457Z,4.68
2023-05-13T00:11:46.372Z,5.05
2023-05-13T00:14:13.293Z,6.05
2023-05-13T00:16:40.496Z,5.53
2023-05-13T00:19:07.532Z,6.05
2023-05-13T00:21:34.763Z,5.55
2023-05-13T00:24:01.723Z,5.28
2023-05-13T00:26:28.651Z,5.88
2023-05-13T00:28:55.615Z,5.90
2023-05-13T00:31:22.500Z,6.18
2023-05-13T00:33:49.415Z,4.95
2023-05-13T00:36:16.316Z,5.63
2023-05-13T00:38:44.280Z,5.65
2023-05-13T00:41:12.470Z,5.47
2023-05-13T00:43:39.438Z,5.97
2023-05-13T00:46:06.905Z,5.50
2023-05-13T00:48:34.409Z,4.72
2023-05-13T00:51:01.336Z,5.50
2023-05-13T00:53:28.311Z,6.43
2023-05-13T00:55:55.778Z,6.45
2023-05-13T00:58:22.687Z,6.30
2023-05-13T01:01:05.350Z,6.43
2023-05-13T01:04:17.666Z,5.93
2023-05-13T01:07:24.280Z,6.53
2023-05-13T01:10:14.804Z,5.93
2023-05-13T01:12:46.276Z,6.07
2023-05-13T01:15:24.495Z,6.57
2023-05-13T01:18:12.601Z,6.75
2023-05-13T01:20:46.757Z,6.65
2023-05-13T01:23:13.673Z,7.00
2023-05-13T01:25:40.873Z,7.15
2023-05-13T01:28:09.395Z,7.20
2023-05-13T01:30:36.805Z,6.35
2023-05-13T01:33:04.174Z,7.03
2023-05-13T01:35:32.178Z,7.82
2023-05-13T01:38:00.812Z,7.05
2023-05-13T01:40:32.861Z,7.22
2023-05-13T01:43:01.012Z,7.03
2023-05-13T01:45:29.999Z,7.75
2023-05-13T01:47:56.964Z,7.63
2023-05-13T01:50:24.276Z,7.72
2023-05-13T01:52:51.434Z,7.32
2023-05-13T01:55:19.467Z,6.88
2023-05-13T01:57:46.308Z,7.47
2023-05-13T02:00:13.963Z,7.03
2023-05-13T02:02:40.871Z,7.45
2023-05-13T02:05:08.417Z,7.10
2023-05-13T02:07:35.280Z,7.03
2023-05-13T02:10:02.126Z,7.05
2023-05-13T02:12:28.997Z,8.18
2023-05-13T02:14:56.249Z,7.93
2023-05-13T02:17:23.167Z,7.55
2023-05-13T02:19:50.709Z,6.72
2023-05-13T02:22:17.590Z,7.55
2023-05-13T02:24:44.473Z,9.07
2023-05-13T02:27:12.942Z,8.07
2023-05-13T02:29:39.870Z,8.23
2023-05-13T02:32:07.617Z,8.57
2023-05-13T02:34:34.693Z,8.15
2023-05-13T02:37:04.164Z,8.43
2023-05-13T02:39:31.014Z,8.82
2023-05-13T02:41:58.035Z,8.27
2023-05-13T02:44:24.849Z,8.85
2023-05-13T02:46:51.784Z,8.48
2023-05-13T02:49:18.653Z,8.60
2023-05-13T02:51:45.584Z,9.15
2023-05-13T02:54:12.407Z,8.82
2023-05-13T02:56:39.216Z,9.48
2023-05-13T02:59:06.047Z,9.18
2023-05-13T03:01:32.905Z,8.75
2023-05-13T03:03:59.780Z,9.35
2023-05-13T03:06:27.136Z,8.73
2023-05-13T03:08:54.025Z,8.20
2023-05-13T03:11:21.724Z,9.02
2023-05-13T03:13:48.545Z,7.85
2023-05-13T03:16:15.571Z,8.93
2023-05-13T03:18:45.121Z,8.05
2023-05-13T03:21:11.978Z,7.68
2023-05-13T03:23:38.793Z,7.18
2023-05-13T03:26:05.828Z,6.80
2023-05-13T03:28:32.691Z,7.47
2023-05-13T03:30:59.884Z,7.57
2023-05-13T03:33:27.020Z,6.63
2023-05-13T03:35:53.856Z,7.43
2023-05-13T03:38:20.695Z,7.22
2023-05-13T03:40:47.587Z,6.85
2023-05-13T03:43:14.497Z,8.18
2023-05-13T03:45:41.426Z,8.23
2023-05-13T03:48:08.366Z,8.18
2023-05-13T03:50:35.441Z,7.95
2023-05-13T03:53:04.325Z,7.65
2023-05-13T03:55:31.274Z,7.90
2023-05-13T03:57:58.105Z,8.32
2023-05-13T04:00:24.952Z,8.07
2023-05-13T04:02:51.964Z,8.85
2023-05-13T04:05:19.117Z,7.80
2023-05-13T04:07:46.396Z,8.40
2023-05-13T04:10:15.387Z,8.38
2023-05-13T04:12:42.695Z,8.20
2023-05-13T04:15:10.129Z,8.85
2023-05-13T04:17:37.008Z,9.00
2023-05-13T04:20:04.390Z,8.02
2023-05-13T04:22:33.983Z,9.43
2023-05-13T04:25:00.803Z,9.60
2023-05-13T04:27:27.597Z,8.10
2023-05-13T04:29:54.431Z,8.10
2023-05-13T04:32:22.142Z,8.77
2023-05-13T04:34:49.632Z,7.90
2023-05-13T04:37:16.791Z,8.70
2023-05-13T04:39:48.717Z,8.65
2023-05-13T04:42:16.563Z,8.50
2023-05-13T04:44:43.978Z,8.45
2023-05-13T04:47:11.316Z,8.23
2023-05-13T04:49:38.198Z,7.63
2023-05-13T04:52:06.710Z,8.90
2023-05-13T04:54:35.715Z,7.80
2023-05-13T04:57:03.488Z,8.73
2023-05-13T04:59:31.047Z,7.57
2023-05-13T05:01:58.428Z,7.80
2023-05-13T05:04:25.680Z,8.43
2023-05-13T05:06:58.134Z,8.02
2023-05-13T05:09:25.039Z,8.10
2023-05-13T05:11:51.813Z,8.45
2023-05-13T05:14:18.706Z,8.13
2023-05-13T05:16:45.698Z,7.88
2023-05-13T05:19:15.294Z,8.02
2023-05-13T05:21:42.166Z,8.20
2023-05-13T05:24:09.000Z,7.63
2023-05-13T05:26:35.809Z,7.68
2023-05-13T05:29:02.651Z,7.80
2023-05-13T05:31:30.369Z,7.38
2023-05-13T05:33:57.682Z,7.20
2023-05-13T05:36:24.662Z,7.75
2023-05-13T05:38:51.479Z,7.15
2023-05-13T05:41:18.435Z,7.53
2023-05-13T05:43:45.266Z,6.45
2023-05-13T05:46:12.080Z,7.03
2023-05-13T05:48:39.042Z,7.03
2023-05-13T05:51:06.153Z,7.25
2023-05-13T05:53:35.631Z,7.88
2023-05-13T05:56:02.455Z,6.93
2023-05-13T05:58:29.593Z,7.00
2023-05-13T06:00:57.162Z,6.85
2023-05-13T06:03:24.486Z,6.07
2023-05-13T06:05:51.495Z,7.03
2023-05-13T06:08:18.389Z,7.22
2023-05-13T06:10:45.490Z,6.60
2023-05-13T06:13:12.288Z,7.03
2023-05-13T06:15:39.184Z,6.22
2023-05-13T06:18:06.386Z,7.10
2023-05-13T06:20:33.403Z,6.70
2023-05-13T06:23:00.544Z,7.22
2023-05-13T06:25:27.339Z,7.00
2023-05-13T06:27:54.174Z,6.90
2023-05-13T06:30:21.806Z,7.25
2023-05-13T06:32:57.757Z,7.75
2023-05-13T06:35:28.648Z,7.35
2023-05-13T06:37:55.546Z,7.88
2023-05-13T06:40:22.572Z,7.82
2023-05-13T06:42:49.716Z,8.73
2023-05-13T06:45:16.722Z,7.47
2023-05-13T06:47:43.730Z,8.38
2023-05-13T06:50:11.162Z,8.25
2023-05-13T06:52:39.411Z,8.60
2023-05-13T06:55:08.798Z,9.20
2023-05-13T06:57:41.856Z,8.20
2023-05-13T07:00:10.205Z,8.65
2023-05-13T07:02:38.208Z,7.95
2023-05-13T07:05:05.630Z,8.27
2023-05-13T07:07:32.443Z,8.65
2023-05-13T07:09:59.310Z,8.77
2023-05-13T07:12:26.165Z,8.85
2023-05-13T07:14:52.986Z,6.88
2023-05-13T07:17:19.896Z,7.95
2023-05-13T07:19:47.460Z,7.40
2023-05-13T07:22:14.300Z,8.35
2023-05-13T07:24:41.793Z,8.65
2023-05-13T07:27:08.641Z,8.23
2023-05-13T07:29:35.465Z,8.90
2023-05-13T07:32:06.898Z,7.15
2023-05-13T07:34:33.834Z,6.82
2023-05-13T07:37:00.715Z,7.00
2023-05-13T07:39:28.404Z,7.32
2023-05-13T07:41:55.304Z,6.55
2023-05-13T07:44:22.672Z,6.47
2023-05-13T07:46:51.544Z,6.75
2023-05-13T07:49:18.392Z,6.60
2023-05-13T07:51:45.246Z,9.48
2023-05-13T07:54:12.129Z,8.55
2023-05-13T07:56:39.075Z,7.13
2023-05-13T07:59:05.954Z,6.72
2023-05-13T08:01:32.915Z,7.57
2023-05-13T08:03:59.933Z,6.97
2023-05-13T08:06:26.953Z,7.32
2023-05-13T08:08:53.814Z,7.65
2023-05-13T08:11:21.718Z,7.82
2023-05-13T08:13:48.644Z,7.55
2023-05-13T08:16:15.561Z,8.30
2023-05-13T08:18:42.601Z,8.27
2023-05-13T08:21:09.523Z,8.35
2023-05-13T08:23:45.468Z,8.48
2023-05-13T08:26:13.939Z,7.80
2023-05-13T08:28:42.005Z,7.80
2023-05-13T08:31:14.217Z,7.82
2023-05-13T08:33:42.682Z,7.18
2023-05-13T08:36:09.966Z,7.45
2023-05-13T08:38:36.838Z,7.45
2023-05-13T08:41:07.782Z,7.30
2023-05-13T08:43:35.554Z,6.75
2023-05-13T08:46:04.542Z,7.22
2023-05-13T08:48:32.972Z,7.15
2023-05-13T08:51:02.226Z,5.80
2023-05-13T08:53:29.596Z,6.97
2023-05-13T08:55:59.715Z,6.88
2023-05-13T08:58:26.729Z,6.88
2023-05-13T09:00:54.402Z,6.85
2023-05-13T09:03:21.853Z,6.88
2023-05-13T09:05:48.840Z,8.00
2023-05-13T09:08:15.842Z,7.15
2023-05-13T09:10:42.999Z,7.70
2023-05-13T09:13:13.161Z,7.30
2023-05-13T09:15:43.233Z,7.10
2023-05-13T09:18:10.973Z,7.50
2023-05-13T09:20:38.296Z,7.03
2023-05-13T09:23:11.099Z,6.82
2023-05-13T09:25:38.804Z,7.60
2023-05-13T09:28:07.848Z,7.28
2023-05-13T09:30:42.627Z,7.78
2023-05-13T09:33:21.868Z,7.47
2023-05-13T09:35:54.954Z,7.47
2023-05-13T09:38:26.327Z,8.10
2023-05-13T09:40:59.586Z,7.75
2023-05-13T09:43:32.769Z,8.02
2023-05-13T09:46:05.091Z,7.85
2023-05-13T09:48:34.375Z,7.32
2023-05-13T09:51:01.416Z,7.30
2023-05-13T09:53:29.166Z,6.63
2023-05-13T09:55:58.679Z,7.10
2023-05-13T09:58:31.067Z,6.32
2023-05-13T10:00:58.646Z,5.40
2023-05-13T10:03:25.736Z,5.18
2023-05-13T10:05:53.722Z,4.50
2023-05-13T10:08:22.179Z,4.78
2023-05-13T10:10:53.780Z,4.90
2023-05-13T10:13:25.358Z,4.60
2023-05-13T10:15:55.181Z,4.40
2023-05-13T10:18:27.229Z,4.57
2023-05-13T10:20:55.250Z,4.28
2023-05-13T10:23:24.235Z,4.22
2023-05-13T10:25:53.928Z,4.07
2023-05-13T10:28:21.442Z,4.72
2023-05-13T10:30:53.276Z,4.50
2023-05-13T10:33:21.202Z,4.55
2023-05-13T10:36:31.681Z,4.00
2023-05-13T10:39:24.354Z,3.22
2023-05-13T10:42:15.036Z,3.85
2023-05-13T10:44:42.573Z,3.30
2023-05-13T10:47:11.220Z,4.10
2023-05-13T10:49:39.272Z,4.05
2023-05-13T10:52:09.871Z,4.25
2023-05-13T10:54:40.526Z,3.85
2023-05-13T10:57:08.892Z,3.90
2023-05-13T10:59:37.223Z,3.33
2023-05-13T11:02:22.362Z,3.05
2023-05-13T11:05:01.631Z,3.33
2023-05-13T11:07:31.604Z,3.33
2023-05-13T11:09:59.960Z,3.37
2023-05-13T11:12:26.805Z,3.10
2023-05-13T11:14:56.627Z,3.42
2023-05-13T11:17:23.572Z,3.13
2023-05-13T11:19:52.445Z,3.40
2023-05-13T11:22:26.300Z,2.88
2023-05-13T11:25:10.244Z,3.47
2023-05-13T11:27:42.902Z,2.75
2023-05-13T11:30:30.188Z,2.83
2023-05-13T11:33:02.760Z,2.63
2023-05-13T11:35:32.359Z,2.00
2023-05-13T11:38:02.556Z,1.98
2023-05-13T11:40:32.911Z,2.00
2023-05-13T11:43:01.135Z,2.13
2023-05-13T11:45:30.866Z,2.05
2023-05-13T11:47:59.084Z,2.25
2023-05-13T11:50:30.996Z,2.25
2023-05-13T11:53:00.887Z,1.83
2023-05-13T11:55:31.479Z,2.47
2023-05-13T11:57:59.664Z,1.67
2023-05-13T12:00:35.011Z,1.63
2023-05-13T12:03:11.858Z,1.80
2023-05-13T12:05:40.019Z,1.70
2023-05-13T12:08:10.798Z,1.52
2023-05-13T12:13:11.109Z,1.48
2023-05-13T12:15:38.360Z,1.38
2023-05-13T12:18:06.813Z,1.73
2023-05-13T12:20:33.702Z,1.70
2023-05-13T12:23:01.975Z,1.67
2023-05-13T12:25:43.586Z,1.98
2023-05-13T12:28:13.785Z,1.88
2023-05-13T12:30:44.105Z,1.70
2023-05-13T12:33:31.485Z,1.23
2023-05-13T12:36:38.651Z,1.08
2023-05-13T12:39:11.043Z,1.67
2023-05-13T12:41:40.841Z,1.73
2023-05-13T12:44:14.134Z,1.40
2023-05-13T12:46:57.800Z,1.23
2023-05-13T12:49:25.196Z,1.08
2023-05-13T12:51:52.133Z,1.27
2023-05-13T12:54:19.138Z,1.70
2023-05-13T12:56:46.183Z,1.90
2023-05-13T12:59:14.337Z,1.50
2023-05-13T13:01:42.854Z,1.85
2023-05-13T13:04:10.071Z,1.95
2023-05-13T13:06:37.189Z,1.98
2023-05-13T13:09:04.143Z,2.28
2023-05-13T13:11:31.091Z,1.90
2023-05-13T13:13:57.937Z,2.00
2023-05-13T13:16:24.898Z,2.25
2023-05-13T13:18:54.292Z,2.25
2023-05-13T13:21:22.681Z,1.92
2023-05-13T13:23:49.526Z,2.42
2023-05-13T13:26:16.522Z,2.05
2023-05-13T13:28:43.372Z,2.63
2023-05-13T13:31:11.779Z,2.45
2023-05-13T13:33:38.609Z,2.03
2023-05-13T13:36:05.966Z,3.22
2023-05-13T13:38:32.813Z,2.80
2023-05-13T13:40:59.715Z,2.38
2023-05-13T13:43:26.823Z,2.72
2023-05-13T13:45:53.922Z,2.03
2023-05-13T13:48:21.948Z,2.13
2023-05-13T13:50:52.954Z,1.88
2023-05-13T13:53:19.945Z,2.25
2023-05-13T13:55:46.973Z,2.10
2023-05-13T13:58:14.446Z,2.30
2023-05-13T14:00:41.350Z,1.83
2023-05-13T14:03:08.387Z,2.40
2023-05-13T14:05:35.306Z,2.00
2023-05-13T14:08:02.155Z,1.95
2023-05-13T14:10:29.231Z,1.90
2023-05-13T14:12:56.371Z,1.60
2023-05-13T14:15:24.314Z,1.60
2023-05-13T14:17:51.154Z,1.70
2023-05-13T14:20:18.092Z,1.70
2023-05-13T14:22:44.863Z,1.65
2023-05-13T14:25:11.677Z,1.40
2023-05-13T14:27:38.559Z,1.80
2023-05-13T14:30:06.842Z,1.73
2023-05-13T14:32:34.331Z,1.58
2023-05-13T14:35:01.208Z,1.65
2023-05-13T14:37:28.014Z,1.20
2023-05-13T14:39:55.992Z,1.75
2023-05-13T14:42:22.886Z,1.20
2023-05-13T14:44:49.696Z,1.45
2023-05-13T14:47:16.574Z,1.42
2023-05-13T14:49:43.600Z,1.85
2023-05-13T14:52:10.579Z,1.38
2023-05-13T14:54:38.239Z,1.33
2023-05-13T14:57:07.144Z,1.30
2023-05-13T14:59:34.629Z,1.23
2023-05-13T15:02:03.439Z,1.25
2023-05-13T15:04:30.794Z,0.93
2023-05-13T15:06:58.366Z,1.23
2023-05-13T15:09:25.341Z,1.13
2023-05-13T15:11:52.273Z,1.10
2023-05-13T15:14:20.968Z,1.00
2023-05-13T15:16:47.819Z,1.25
2023-05-13T15:19:14.701Z,1.20
2023-05-13T15:21:41.504Z,1.10
2023-05-13T15:24:08.381Z,0.80
2023-05-13T15:26:35.276Z,0.80
2023-05-13T15:29:02.205Z,0.70
2023-05-13T15:31:31.675Z,1.00
2023-05-13T15:33:59.408Z,0.67
2023-05-13T15:36:26.301Z,0.88
2023-05-13T15:38:53.168Z,0.70
2023-05-13T15:41:19.981Z,0.80
2023-05-13T15:43:46.819Z,0.98
2023-05-13T15:46:13.730Z,1.40
2023-05-13T15:48:40.633Z,1.20
2023-05-13T15:51:07.446Z,2.45
2023-05-13T15:53:34.765Z,1.30
2023-05-13T15:56:01.645Z,1.30
2023-05-13T15:58:28.458Z,0.90
2023-05-13T16:00:55.810Z,1.38
2023-05-13T16:03:22.788Z,1.40
2023-05-13T16:05:49.841Z,1.05
2023-05-13T16:08:17.072Z,1.40
2023-05-13T16:10:43.940Z,1.50
2023-05-13T16:13:10.963Z,1.58
2023-05-13T16:15:37.905Z,1.40
2023-05-13T16:18:04.868Z,1.02
2023-05-13T16:20:31.739Z,1.23
2023-05-13T16:22:58.538Z,1.25
2023-05-13T16:25:25.961Z,1.42
2023-05-13T16:27:52.891Z,1.55
2023-05-13T16:30:19.820Z,1.05
2023-05-13T16:32:48.941Z,1.10
2023-05-13T16:35:15.964Z,2.67
2023-05-13T16:37:42.806Z,2.28
2023-05-13T16:40:10.939Z,2.38
2023-05-13T16:42:37.805Z,2.08
2023-05-13T16:45:06.582Z,2.45
2023-05-13T16:47:34.047Z,2.47
2023-05-13T16:50:00.965Z,2.30
2023-05-13T16:52:27.922Z,2.65
2023-05-13T16:54:56.628Z,2.05
2023-05-13T16:57:24.891Z,2.15
2023-05-13T16:59:51.767Z,2.95
2023-05-13T17:02:18.629Z,3.08
2023-05-13T17:04:45.458Z,2.40
2023-05-13T17:07:12.347Z,1.73
2023-05-13T17:09:39.221Z,1.23
2023-05-13T17:12:06.697Z,0.93
2023-05-13T17:14:33.622Z,0.95
2023-05-13T17:17:00.605Z,0.70
2023-05-13T17:27:19.771Z,0.90
2023-05-13T17:29:46.638Z,1.00
2023-05-13T17:32:13.457Z,0.88
2023-05-13T17:34:40.404Z,0.63
2023-05-13T17:37:10.403Z,0.70
2023-05-13T17:39:37.246Z,0.82
2023-05-13T17:42:04.167Z,0.50
2023-05-13T17:44:31.094Z,0.70
2023-05-13T17:46:57.932Z,0.40
2023-05-13T17:49:24.854Z,0.70
2023-05-13T17:51:51.741Z,0.52
2023-05-13T17:54:18.595Z,0.63
2023-05-13T17:56:45.440Z,0.80
2023-05-13T17:59:12.237Z,0.60
2023-05-13T18:01:39.098Z,0.70
2023-05-13T18:04:06.014Z,0.80
2023-05-13T18:06:33.364Z,0.70
2023-05-13T18:09:00.239Z,0.77
2023-05-13T18:11:27.057Z,0.57
2023-05-13T18:13:53.897Z,0.57
2023-05-13T18:16:21.022Z,0.90
2023-05-13T18:18:48.683Z,0.60
2023-05-13T18:21:15.780Z,0.63
2023-05-13T18:23:45.720Z,0.60
2023-05-13T18:26:12.645Z,0.98
2023-05-13T18:28:42.331Z,0.70
2023-05-13T18:31:09.343Z,0.70
2023-05-13T18:33:36.215Z,0.90
2023-05-13T18:36:03.056Z,1.33
2023-05-13T18:38:29.889Z,1.17
2023-05-13T18:40:56.737Z,1.40
2023-05-13T18:43:23.637Z,1.20
2023-05-13T18:45:50.539Z,1.02
2023-05-13T18:48:17.488Z,0.90
2023-05-13T18:50:44.378Z,1.13
2023-05-13T18:53:11.283Z,0.90
2023-05-13T18:55:38.531Z,0.82
2023-05-13T18:58:08.732Z,0.93
2023-05-13T19:00:37.435Z,0.90
2023-05-13T19:03:04.644Z,0.68
2023-05-13T19:05:31.774Z,0.80
2023-05-13T19:08:06.780Z,1.00
2023-05-13T19:10:39.114Z,0.85
2023-05-13T19:13:07.166Z,0.82
2023-05-13T19:15:34.395Z,0.98
2023-05-13T19:18:01.659Z,0.50
2023-05-13T19:20:30.018Z,0.50
2023-05-13T19:22:57.184Z,0.45
2023-05-13T19:25:24.218Z,0.60
2023-05-13T19:27:51.190Z,0.50
2023-05-13T19:30:18.143Z,0.60
2023-05-13T19:32:45.043Z,0.40
2023-05-13T19:35:12.074Z,0.47
2023-05-13T19:37:39.077Z,0.30
2023-05-13T19:40:06.812Z,0.38
2023-05-13T19:42:33.684Z,0.30
2023-05-13T19:45:00.524Z,0.40
2023-05-13T19:47:27.660Z,0.40
2023-05-13T19:49:54.551Z,0.40
2023-05-13T19:52:21.360Z,0.40
2023-05-13T19:54:48.242Z,1.02
2023-05-13T19:57:15.246Z,1.20
2023-05-13T19:59:42.158Z,0.80
2023-05-13T20:02:09.260Z,0.60
2023-05-13T20:04:36.494Z,0.98
2023-05-13T20:07:04.108Z,1.42
2023-05-13T20:09:31.367Z,1.45
2023-05-13T20:11:58.270Z,1.27
2023-05-13T20:14:27.650Z,0.77
2023-05-13T20:16:54.900Z,0.60
2023-05-13T20:19:21.849Z,0.55
2023-05-13T20:21:48.784Z,0.50
2023-05-13T20:24:15.762Z,0.70
2023-05-13T20:26:42.597Z,0.50
2023-05-13T20:29:09.447Z,0.90
2023-05-13T20:31:36.390Z,0.77
2023-05-13T20:34:03.872Z,0.75
2023-05-13T20:36:32.590Z,0.63
2023-05-13T20:38:59.500Z,0.90
2023-05-13T20:41:26.318Z,0.90
2023-05-13T20:43:53.169Z,0.95
2023-05-13T20:46:20.027Z,1.00
2023-05-13T20:48:48.024Z,1.00
2023-05-13T20:51:14.928Z,0.90
2023-05-13T20:53:41.756Z,0.90
2023-05-13T20:56:09.994Z,1.25
2023-05-13T20:58:37.114Z,0.90
2023-05-13T21:01:04.037Z,1.42
2023-05-13T21:03:32.815Z,2.10
2023-05-13T21:05:59.654Z,2.40
2023-05-13T21:08:26.608Z,2.90
2023-05-13T21:10:56.224Z,2.67
2023-05-13T21:13:23.264Z,2.47
2023-05-13T21:15:51.928Z,2.67
2023-05-13T21:18:18.893Z,2.20
2023-05-13T21:20:46.374Z,2.03
2023-05-13T21:23:13.273Z,1.75
2023-05-13T21:25:40.386Z,1.63
2023-05-13T21:28:07.531Z,1.50
2023-05-13T21:30:34.677Z,1.58
2023-05-13T21:33:01.682Z,1.88
2023-05-13T21:35:28.720Z,1.35
2023-05-13T21:38:04.522Z,1.40
2023-05-13T21:40:38.805Z,1.38
2023-05-13T21:43:05.662Z,1.83
2023-05-13T21:45:32.532Z,2.53
2023-05-13T21:47:59.477Z,2.00
2023-05-13T21:50:26.406Z,2.38
2023-05-13T21:52:53.302Z,2.30
2023-05-13T21:55:20.268Z,2.50
2023-05-13T21:57:48.337Z,2.83
2023-05-13T22:00:18.915Z,3.75
2023-05-13T22:02:46.420Z,3.80
2023-05-13T22:05:13.875Z,3.67
2023-05-13T22:07:40.788Z,4.00
2023-05-13T22:10:08.648Z,4.45
2023-05-13T22:12:35.801Z,5.03
2023-05-13T22:15:02.718Z,4.78
2023-05-13T22:17:29.636Z,4.93
2023-05-13T22:19:56.835Z,4.43
2023-05-13T22:22:23.720Z,4.57
2023-05-13T22:24:50.642Z,5.10
2023-05-13T22:27:17.493Z,4.88
2023-05-13T22:29:44.308Z,4.35
2023-05-13T22:32:11.245Z,5.13
2023-05-13T22:34:38.163Z,4.93
2023-05-13T22:37:05.440Z,5.65
2023-05-13T22:39:32.366Z,5.97
2023-05-13T22:41:59.277Z,6.05
2023-05-13T22:44:26.150Z,5.63
2023-05-13T22:46:53.990Z,5.72
2023-05-13T22:49:20.982Z,5.57
2023-05-13T22:51:47.887Z,5.63
2023-05-13T22:54:14.776Z,6.13
2023-05-13T22:56:41.630Z,10.45
2023-05-13T22:59:08.483Z,12.25
2023-05-13T23:01:35.539Z,8.10
2023-05-13T23:04:04.050Z,6.95
2023-05-13T23:06:30.952Z,6.25
2023-05-13T23:08:58.107Z,6.50
2023-05-13T23:11:24.925Z,7.25
2023-05-13T23:13:51.785Z,6.93
2023-05-13T23:16:21.631Z,7.05
2023-05-13T23:18:48.514Z,6.47
2023-05-13T23:21:15.616Z,7.00
2023-05-13T23:23:42.460Z,6.47
2023-05-13T23:26:09.368Z,6.68
2023-05-13T23:28:36.248Z,7.00
2023-05-13T23:31:03.209Z,7.07
2023-05-13T23:33:30.105Z,6.47
2023-05-13T23:35:57.049Z,7.22
2023-05-13T23:38:24.173Z,6.95
2023-05-13T23:40:51.120Z,8.00
2023-05-13T23:43:18.063Z,8.25
2023-05-13T23:45:46.161Z,7.32
2023-05-13T23:48:13.215Z,7.05
2023-05-13T23:50:42.006Z,7.28
2023-05-13T23:53:08.897Z,7.65
2023-05-13T23:55:35.881Z,7.10
2023-05-13T23:58:02.807Z,6.85
